หน้าหลัก
METAR-TAF:

METAR-TAF

ท่าอากาศยาน :

ดาการ์, เซเนกัล

ละติจูด: 14-44N, ลองจิจูด: 017-30W, ความสูง: 27 ม.

การสังเกตสภาพอากาศปัจจุบัน

รายงานได้ทำขึ้นเมื่อ 1 ชั่วโมงและ 31 นาทีที่แล้ว ณ เวลา 03:00 UTC
ลม 8 นอตจากเหนือ
อุณหภูมิ 27°C
ความชื้น 84%
ความกดอากาศ 1012 hPa
ทัศนวิสัย 10 กม. หรือมากกว่า
มีเมฆน้อยที่ความสูง 1500 ฟุต

METAR: GOOY 080300Z 36008KT 9999 FEW015 27/24 Q1012

เวลา: 04:31 (04:31 UTC)

การพยากรณ์

รายงานได้ทำขึ้นเมื่อ 5 ชั่วโมงและ 1 นาทีที่แล้ว ณ เวลา 23:30 UTC
การพยากรณ์มีผลตั้งแต่วันที่ 08 ณ เวลา 00 UTC จนถึงวันที่ 09 ณ เวลา 06 UTC
ลม 12 นอตจากเหนือ/ตะวันตกเฉียงเหนือ
ทัศนวิสัย: 8000 ม.
มีเมฆกระจายเป็นบางส่วนที่ความสูง 1300 ฟุต

TAF: GOOY 072330Z 0800/0906 34012KT 8000 SCT013

สังเกตการณ์สภาพอากาศและพยากรณ์อากาศของสนามบินมากกว่า 4000 แห่ง (รายงาน METAR และ TAF).

สถานีที่ดูได้จะแสดงไว้ด้วยจุดสีเหลืองและสีแดงบนแผนที่.

เลื่อนเมาส์ไปเหนือจุดเพื่อดูชื่อสถานี.

แล้วคลิกเพื่อดูสังเกตการณ์และการพยากรณ์สภาพอากาศ.

ในการเปลี่ยนแผนที่: คลิกที่ปุ่มสีเขียวที่มีกากบาทสีดำเพื่อซูมเข้า; ที่ปุ่มสีเขียวที่มีขีดเพื่อซูมออก; หรือที่ลูกศรสีเขียวเพื่อไปยังแผนที่ที่อยู่ติดกัน.


METAR-TAF: